createdAt,value
2023-04-15T00:07:09.146Z,4.02
2023-04-15T00:22:05.794Z,3.64
2023-04-15T00:37:02.095Z,2.92
2023-04-15T00:51:58.473Z,3.12
2023-04-15T01:06:54.591Z,3.22
2023-04-15T01:21:50.800Z,3.33
2023-04-15T01:36:47.179Z,3.46
2023-04-15T01:51:42.793Z,3.23
2023-04-15T02:06:38.905Z,2.83
2023-04-15T02:21:35.296Z,2.83
2023-04-15T02:36:30.839Z,2.97
2023-04-15T02:51:27.118Z,2.76
2023-04-15T03:06:23.797Z,2.73
2023-04-15T03:21:19.619Z,2.49
2023-04-15T03:36:15.863Z,2.23
2023-04-15T03:51:12.338Z,2.1
2023-04-15T04:06:08.730Z,2.02
2023-04-15T04:21:04.152Z,2.16
2023-04-15T04:35:59.715Z,1.91
2023-04-15T04:50:55.969Z,1.94
2023-04-15T05:05:52.204Z,1.72
2023-04-15T05:20:48.464Z,1.87
2023-04-15T05:35:45.404Z,2.5
2023-04-15T05:50:41.880Z,3.31
2023-04-15T06:05:38.971Z,3.85
2023-04-15T06:20:35.853Z,4.34
2023-04-15T06:35:33.031Z,5.18
2023-04-15T06:50:29.639Z,6.18
2023-04-15T07:05:26.651Z,7.25
2023-04-15T07:20:23.598Z,7.44
2023-04-15T07:35:20.740Z,8.73
2023-04-15T07:50:17.180Z,9.56
2023-04-15T08:05:13.909Z,10.25
2023-04-15T08:20:10.728Z,11.67
2023-04-15T08:35:07.766Z,12.08
2023-04-15T08:50:04.163Z,12.77
2023-04-15T09:05:01.129Z,12.67
2023-04-15T09:19:57.262Z,12.54
2023-04-15T09:34:53.877Z,13.01
2023-04-15T09:49:50.408Z,13.95
2023-04-15T10:04:47.199Z,13.99
2023-04-15T10:19:43.546Z,14.12
2023-04-15T10:34:40.476Z,14.9
2023-04-15T10:49:36.706Z,14.46
2023-04-15T11:04:33.097Z,15.55
2023-04-15T11:19:30.144Z,14.49
2023-04-15T11:34:26.195Z,14.21
2023-04-15T11:49:22.894Z,13.68
2023-04-15T12:04:20.111Z,13.36
2023-04-15T12:19:14.084Z,13.25
2023-04-15T12:34:10.091Z,12.92
2023-04-15T12:49:05.518Z,12.29
2023-04-15T13:04:01.418Z,12.08
2023-04-15T13:18:57.769Z,12.53
2023-04-15T13:33:54.018Z,12.44
2023-04-15T13:48:50.608Z,12.21
2023-04-15T14:03:46.664Z,11.6
2023-04-15T14:18:42.390Z,11.46
2023-04-15T14:33:38.159Z,11.6
2023-04-15T14:48:34.217Z,11.34
2023-04-15T15:03:29.900Z,10.88
2023-04-15T15:18:25.570Z,10.62
2023-04-15T15:33:21.452Z,10.55
2023-04-15T15:48:17.189Z,10.18
2023-04-15T16:03:13.267Z,10.08
2023-04-15T16:18:09.343Z,10.03
2023-04-15T16:33:05.600Z,9.87
2023-04-15T16:48:01.679Z,9.6
2023-04-15T17:02:57.932Z,9.68
2023-04-15T17:17:53.705Z,9.5
2023-04-15T17:32:49.274Z,9.46
2023-04-15T17:47:45.203Z,9.72
2023-04-15T18:02:41.432Z,9.71
2023-04-15T18:17:37.469Z,9.26
2023-04-15T18:32:33.871Z,9.31
2023-04-15T18:47:30.181Z,9.27
2023-04-15T19:02:26.827Z,9.09
2023-04-15T19:17:22.388Z,8.76
2023-04-15T19:32:18.207Z,8.57
2023-04-15T19:47:13.785Z,8.53
2023-04-15T20:02:10.028Z,8.6
2023-04-15T20:17:06.123Z,8.72
2023-04-15T20:32:02.272Z,8.57
2023-04-15T20:46:58.677Z,8.56
2023-04-15T21:01:54.953Z,8.36
2023-04-15T21:16:51.070Z,8.32
2023-04-15T21:31:46.881Z,8.4
2023-04-15T21:46:45.911Z,8.45
2023-04-15T22:01:39.126Z,8.47
2023-04-15T22:16:35.060Z,8.22
2023-04-15T22:31:31.677Z,8.34
2023-04-15T22:46:28.027Z,8.22
2023-04-15T23:01:24.587Z,8.15
2023-04-15T23:16:20.668Z,8.07
2023-04-15T23:31:17.034Z,7.99
2023-04-15T23:46:13.096Z,8.06
